sensor_id;sensor_type;location;lat;lon;timestamp;pressure;altitude;pressure_sealevel;temperature;humidity
13952;BME280;39535;52.192;9.886;2023-02-11T00:02:09;102089.63;;;5.23;88.00
13952;BME280;39535;52.192;9.886;2023-02-11T00:04:37;102087.16;;;5.26;87.82
13952;BME280;39535;52.192;9.886;2023-02-11T00:07:03;102098.47;;;5.29;87.86
13952;BME280;39535;52.192;9.886;2023-02-11T00:09:30;102095.03;;;5.30;88.00
13952;BME280;39535;52.192;9.886;2023-02-11T00:11:56;102099.31;;;5.28;88.10
13952;BME280;39535;52.192;9.886;2023-02-11T00:14:22;102095.03;;;5.30;88.14
13952;BME280;39535;52.192;9.886;2023-02-11T00:16:49;102083.63;;;5.24;88.52
13952;BME280;39535;52.192;9.886;2023-02-11T00:19:15;102055.06;;;5.21;89.20
13952;BME280;39535;52.192;9.886;2023-02-11T00:21:43;102046.59;;;5.26;88.74
13952;BME280;39535;52.192;9.886;2023-02-11T00:24:09;102031.81;;;5.22;88.77
13952;BME280;39535;52.192;9.886;2023-02-11T00:26:36;102042.38;;;5.30;88.78
13952;BME280;39535;52.192;9.886;2023-02-11T00:29:03;102050.97;;;5.27;89.20
13952;BME280;39535;52.192;9.886;2023-02-11T00:31:30;102071.66;;;5.27;88.62
13952;BME280;39535;52.192;9.886;2023-02-11T00:33:57;102085.44;;;5.26;88.95
13952;BME280;39535;52.192;9.886;2023-02-11T00:36:25;102072.44;;;5.25;89.57
13952;BME280;39535;52.192;9.886;2023-02-11T00:38:55;102065.53;;;5.24;89.60
13952;BME280;39535;52.192;9.886;2023-02-11T00:41:22;102052.47;;;5.21;90.08
13952;BME280;39535;52.192;9.886;2023-02-11T00:43:49;102054.50;;;5.31;90.00
13952;BME280;39535;52.192;9.886;2023-02-11T00:46:16;102053.72;;;5.33;89.82
13952;BME280;39535;52.192;9.886;2023-02-11T00:48:43;102043.22;;;5.29;89.79
13952;BME280;39535;52.192;9.886;2023-02-11T00:51:09;102053.72;;;5.33;89.55
13952;BME280;39535;52.192;9.886;2023-02-11T00:53:36;102049.19;;;5.26;90.22
13952;BME280;39535;52.192;9.886;2023-02-11T00:56:05;102039.84;;;5.31;90.53
13952;BME280;39535;52.192;9.886;2023-02-11T00:58:31;102036.34;;;5.29;90.95
13952;BME280;39535;52.192;9.886;2023-02-11T01:00:57;102018.75;;;5.19;91.62
13952;BME280;39535;52.192;9.886;2023-02-11T01:03:24;102015.53;;;5.26;91.94
13952;BME280;39535;52.192;9.886;2023-02-11T01:05:51;102015.41;;;5.22;91.84
13952;BME280;39535;52.192;9.886;2023-02-11T01:08:17;101992.81;;;5.16;93.22
13952;BME280;39535;52.192;9.886;2023-02-11T01:10:44;101980.97;;;5.24;93.21
13952;BME280;39535;52.192;9.886;2023-02-11T01:13:11;101976.59;;;5.22;93.52
13952;BME280;39535;52.192;9.886;2023-02-11T01:15:38;101965.53;;;5.29;93.47
13952;BME280;39535;52.192;9.886;2023-02-11T01:18:04;101976.09;;;5.36;93.21
13952;BME280;39535;52.192;9.886;2023-02-11T01:20:31;101958.31;;;5.17;93.79
13952;BME280;39535;52.192;9.886;2023-02-11T01:22:57;101936.91;;;5.23;94.92
13952;BME280;39535;52.192;9.886;2023-02-11T01:25:24;101915.97;;;5.13;94.92
13952;BME280;39535;52.192;9.886;2023-02-11T01:27:50;101899.69;;;5.19;94.73
13952;BME280;39535;52.192;9.886;2023-02-11T01:30:18;101896.13;;;5.14;95.44
13952;BME280;39535;52.192;9.886;2023-02-11T01:32:44;101884.91;;;5.15;96.28
13952;BME280;39535;52.192;9.886;2023-02-11T01:35:11;101858.09;;;5.11;97.37
13952;BME280;39535;52.192;9.886;2023-02-11T01:37:37;101850.34;;;5.11;97.78
13952;BME280;39535;52.192;9.886;2023-02-11T01:40:06;101826.00;;;5.05;98.64
13952;BME280;39535;52.192;9.886;2023-02-11T01:42:36;101817.63;;;5.13;98.17
13952;BME280;39535;52.192;9.886;2023-02-11T01:45:48;101807.88;;;5.05;99.21
13952;BME280;39535;52.192;9.886;2023-02-11T01:48:21;101797.06;;;5.20;98.42
13952;BME280;39535;52.192;9.886;2023-02-11T01:50:51;101804.72;;;5.16;98.77
13952;BME280;39535;52.192;9.886;2023-02-11T01:53:20;101807.28;;;5.15;97.84
13952;BME280;39535;52.192;9.886;2023-02-11T01:56:04;101816.50;;;5.05;98.26
13952;BME280;39535;52.192;9.886;2023-02-11T01:58:50;101803.06;;;5.18;98.45
13952;BME280;39535;52.192;9.886;2023-02-11T02:01:22;101797.88;;;5.18;98.21
13952;BME280;39535;52.192;9.886;2023-02-11T02:03:53;101795.91;;;5.08;98.73
13952;BME280;39535;52.192;9.886;2023-02-11T02:06:25;101783.81;;;5.09;99.38
13952;BME280;39535;52.192;9.886;2023-02-11T02:09:01;101751.00;;;5.06;100.00
13952;BME280;39535;52.192;9.886;2023-02-11T02:11:28;101737.19;;;5.06;100.00
13952;BME280;39535;52.192;9.886;2023-02-11T02:13:55;101733.88;;;5.11;100.00
13952;BME280;39535;52.192;9.886;2023-02-11T02:16:28;101734.78;;;5.13;100.00
13952;BME280;39535;52.192;9.886;2023-02-11T02:19:01;101723.53;;;5.11;100.00
13952;BME280;39535;52.192;9.886;2023-02-11T02:22:04;101707.25;;;5.17;100.00
13952;BME280;39535;52.192;9.886;2023-02-11T02:24:52;101699.13;;;5.02;100.00
13952;BME280;39535;52.192;9.886;2023-02-11T02:27:33;101686.34;;;5.08;100.00
13952;BME280;39535;52.192;9.886;2023-02-11T02:33:23;101682.78;;;5.04;100.00
13952;BME280;39535;52.192;9.886;2023-02-11T02:36:03;101674.25;;;5.08;100.00
13952;BME280;39535;52.192;9.886;2023-02-11T02:38:34;101674.34;;;5.11;100.00
13952;BME280;39535;52.192;9.886;2023-02-11T02:41:06;101694.97;;;5.08;100.00
13952;BME280;39535;52.192;9.886;2023-02-11T02:43:35;101705.28;;;5.07;100.00
13952;BME280;39535;52.192;9.886;2023-02-11T02:46:10;101708.06;;;5.14;100.00
13952;BME280;39535;52.192;9.886;2023-02-11T02:48:39;101723.59;;;5.14;100.00
13952;BME280;39535;52.192;9.886;2023-02-11T02:51:14;101731.34;;;5.14;100.00
13952;BME280;39535;52.192;9.886;2023-02-11T02:53:50;101725.25;;;5.12;100.00
13952;BME280;39535;52.192;9.886;2023-02-11T02:56:24;101715.00;;;5.17;100.00
13952;BME280;39535;52.192;9.886;2023-02-11T02:59:10;101709.72;;;5.12;100.00
13952;BME280;39535;52.192;9.886;2023-02-11T03:01:47;101702.81;;;5.11;100.00
13952;BME280;39535;52.192;9.886;2023-02-11T03:04:21;101695.16;;;5.16;100.00
13952;BME280;39535;52.192;9.886;2023-02-11T03:06:54;101697.78;;;5.19;100.00
13952;BME280;39535;52.192;9.886;2023-02-11T03:09:28;101696.94;;;5.18;100.00
13952;BME280;39535;52.192;9.886;2023-02-11T03:11:56;101698.59;;;5.16;100.00
13952;BME280;39535;52.192;9.886;2023-02-11T03:14:25;101700.56;;;5.27;100.00
13952;BME280;39535;52.192;9.886;2023-02-11T03:16:53;101702.91;;;5.16;100.00
13952;BME280;39535;52.192;9.886;2023-02-11T03:19:25;101699.56;;;5.20;100.00
13952;BME280;39535;52.192;9.886;2023-02-11T03:21:54;101682.16;;;5.14;100.00
13952;BME280;39535;52.192;9.886;2023-02-11T03:24:24;101668.41;;;5.15;100.00
13952;BME280;39535;52.192;9.886;2023-02-11T03:26:56;101663.28;;;5.18;100.00
13952;BME280;39535;52.192;9.886;2023-02-11T03:29:30;101665.03;;;5.20;100.00
13952;BME280;39535;52.192;9.886;2023-02-11T03:32:04;101664.28;;;5.24;100.00
13952;BME280;39535;52.192;9.886;2023-02-11T03:34:41;101670.44;;;5.30;100.00
13952;BME280;39535;52.192;9.886;2023-02-11T03:37:12;101664.13;;;5.17;100.00
13952;BME280;39535;52.192;9.886;2023-02-11T03:39:43;101661.00;;;5.32;100.00
13952;BME280;39535;52.192;9.886;2023-02-11T03:42:13;101666.91;;;5.25;100.00
13952;BME280;39535;52.192;9.886;2023-02-11T03:44:45;101656.56;;;5.25;100.00
13952;BME280;39535;52.192;9.886;2023-02-11T03:47:16;101662.78;;;5.35;100.00
13952;BME280;39535;52.192;9.886;2023-02-11T03:49:46;101671.41;;;5.34;100.00
13952;BME280;39535;52.192;9.886;2023-02-11T03:52:16;101666.09;;;5.28;100.00
13952;BME280;39535;52.192;9.886;2023-02-11T03:54:44;101670.53;;;5.33;100.00
13952;BME280;39535;52.192;9.886;2023-02-11T03:57:12;101673.72;;;5.23;100.00
13952;BME280;39535;52.192;9.886;2023-02-11T03:59:49;101661.72;;;5.27;100.00
13952;BME280;39535;52.192;9.886;2023-02-11T04:02:16;101672.81;;;5.21;100.00
13952;BME280;39535;52.192;9.886;2023-02-11T04:04:43;101664.97;;;5.16;100.00
13952;BME280;39535;52.192;9.886;2023-02-11T04:07:11;101663.31;;;5.20;100.00
13952;BME280;39535;52.192;9.886;2023-02-11T04:09:38;101663.22;;;5.15;100.00
13952;BME280;39535;52.192;9.886;2023-02-11T04:12:04;101665.78;;;5.14;100.00
13952;BME280;39535;52.192;9.886;2023-02-11T04:14:31;101664.88;;;5.12;100.00
13952;BME280;39535;52.192;9.886;2023-02-11T04:16:57;101674.50;;;5.17;100.00
13952;BME280;39535;52.192;9.886;2023-02-11T04:19:24;101674.41;;;5.14;100.00
13952;BME280;39535;52.192;9.886;2023-02-11T04:21:50;101673.59;;;5.15;100.00
13952;BME280;39535;52.192;9.886;2023-02-11T04:24:18;101667.69;;;5.23;100.00
13952;BME280;39535;52.192;9.886;2023-02-11T04:26:44;101674.59;;;5.22;100.00
13952;BME280;39535;52.192;9.886;2023-02-11T04:29:10;101669.44;;;5.24;100.00
13952;BME280;39535;52.192;9.886;2023-02-11T04:31:37;101671.00;;;5.17;100.00
13952;BME280;39535;52.192;9.886;2023-02-11T04:34:04;101661.47;;;5.14;100.00
13952;BME280;39535;52.192;9.886;2023-02-11T04:36:30;101653.66;;;5.11;100.00
13952;BME280;39535;52.192;9.886;2023-02-11T04:38:57;101652.78;;;5.12;100.00
13952;BME280;39535;52.192;9.886;2023-02-11T04:41:24;101657.88;;;5.09;100.00
13952;BME280;39535;52.192;9.886;2023-02-11T04:43:51;101647.53;;;5.09;100.00
13952;BME280;39535;52.192;9.886;2023-02-11T04:46:17;101643.16;;;5.07;100.00
13952;BME280;39535;52.192;9.886;2023-02-11T04:48:44;101650.09;;;5.08;100.00
13952;BME280;39535;52.192;9.886;2023-02-11T04:51:10;101643.13;;;5.05;100.00
13952;BME280;39535;52.192;9.886;2023-02-11T04:53:37;101642.22;;;5.02;100.00
13952;BME280;39535;52.192;9.886;2023-02-11T04:56:03;101630.81;;;4.95;100.00
13952;BME280;39535;52.192;9.886;2023-02-11T04:58:31;101628.41;;;5.03;100.00
13952;BME280;39535;52.192;9.886;2023-02-11T05:01:04;101630.84;;;4.96;100.00
13952;BME280;39535;52.192;9.886;2023-02-11T05:03:31;101639.03;;;5.13;100.00
13952;BME280;39535;52.192;9.886;2023-02-11T05:05:57;101651.97;;;5.13;100.00
13952;BME280;39535;52.192;9.886;2023-02-11T05:08:23;101652.88;;;5.15;100.00
13952;BME280;39535;52.192;9.886;2023-02-11T05:10:50;101648.63;;;5.19;100.00
13952;BME280;39535;52.192;9.886;2023-02-11T05:13:16;101657.25;;;5.18;100.00
13952;BME280;39535;52.192;9.886;2023-02-11T05:15:44;101670.94;;;5.14;100.00
13952;BME280;39535;52.192;9.886;2023-02-11T05:18:10;101665.50;;;5.03;100.00
13952;BME280;39535;52.192;9.886;2023-02-11T05:20:39;101661.19;;;5.02;100.00
13952;BME280;39535;52.192;9.886;2023-02-11T05:23:05;101660.47;;;5.09;100.00
13952;BME280;39535;52.192;9.886;2023-02-11T05:25:32;101669.00;;;5.04;100.00
13952;BME280;39535;52.192;9.886;2023-02-11T05:27:58;101676.75;;;5.04;100.00
13952;BME280;39535;52.192;9.886;2023-02-11T05:30:25;101668.03;;;5.00;100.00
13952;BME280;39535;52.192;9.886;2023-02-11T05:32:53;101677.91;;;5.16;100.00
13952;BME280;39535;52.192;9.886;2023-02-11T05:35:20;101692.78;;;5.25;100.00
13952;BME280;39535;52.192;9.886;2023-02-11T05:37:46;101712.53;;;5.22;100.00
13952;BME280;39535;52.192;9.886;2023-02-11T05:40:13;101710.59;;;5.13;100.00
13952;BME280;39535;52.192;9.886;2023-02-11T05:42:39;101708.09;;;5.16;100.00
13952;BME280;39535;52.192;9.886;2023-02-11T05:45:06;101708.09;;;5.16;100.00
13952;BME280;39535;52.192;9.886;2023-02-11T05:47:33;101694.38;;;5.20;100.00
13952;BME280;39535;52.192;9.886;2023-02-11T05:50:00;101697.78;;;5.19;100.00
13952;BME280;39535;52.192;9.886;2023-02-11T05:52:28;101701.34;;;5.23;100.00
13952;BME280;39535;52.192;9.886;2023-02-11T05:54:54;101711.97;;;5.33;100.00
13952;BME280;39535;52.192;9.886;2023-02-11T05:57:21;101720.31;;;5.23;100.00
13952;BME280;39535;52.192;9.886;2023-02-11T05:59:47;101710.91;;;5.25;100.00
13952;BME280;39535;52.192;9.886;2023-02-11T06:02:13;101717.91;;;5.31;100.00
13952;BME280;39535;52.192;9.886;2023-02-11T06:04:40;101712.88;;;5.37;100.00
13952;BME280;39535;52.192;9.886;2023-02-11T06:07:08;101722.28;;;5.32;100.00
13952;BME280;39535;52.192;9.886;2023-02-11T06:09:37;101718.72;;;5.28;100.00
13952;BME280;39535;52.192;9.886;2023-02-11T06:12:04;101726.63;;;5.34;100.00
13952;BME280;39535;52.192;9.886;2023-02-11T06:14:31;101727.66;;;5.41;100.00
13952;BME280;39535;52.192;9.886;2023-02-11T06:16:57;101722.41;;;5.38;100.00
13952;BME280;39535;52.192;9.886;2023-02-11T06:19:24;101716.38;;;5.39;100.00
13952;BME280;39535;52.192;9.886;2023-02-11T06:21:50;101722.50;;;5.41;100.00
13952;BME280;39535;52.192;9.886;2023-02-11T06:24:18;101731.00;;;5.37;100.00
13952;BME280;39535;52.192;9.886;2023-02-11T06:26:44;101731.25;;;5.48;100.00
13952;BME280;39535;52.192;9.886;2023-02-11T06:29:11;101738.22;;;5.50;100.00
13952;BME280;39535;52.192;9.886;2023-02-11T06:31:38;101743.22;;;5.41;100.00
13952;BME280;39535;52.192;9.886;2023-02-11T06:34:05;101738.03;;;5.41;100.00
13952;BME280;39535;52.192;9.886;2023-02-11T06:36:32;101745.09;;;5.48;100.00
13952;BME280;39535;52.192;9.886;2023-02-11T06:38:58;101757.97;;;5.47;100.00
13952;BME280;39535;52.192;9.886;2023-02-11T06:41:26;101758.69;;;5.40;100.00
13952;BME280;39535;52.192;9.886;2023-02-11T06:43:53;101742.31;;;5.41;100.00
13952;BME280;39535;52.192;9.886;2023-02-11T06:46:19;101761.44;;;5.46;100.00
13952;BME280;39535;52.192;9.886;2023-02-11T06:48:46;101758.16;;;5.54;100.00
13952;BME280;39535;52.192;9.886;2023-02-11T06:51:13;101758.13;;;5.51;100.00
13952;BME280;39535;52.192;9.886;2023-02-11T06:53:41;101770.34;;;5.58;100.00
13952;BME280;39535;52.192;9.886;2023-02-11T06:56:10;101765.06;;;5.54;100.00
13952;BME280;39535;52.192;9.886;2023-02-11T06:58:39;101765.13;;;5.55;100.00
13952;BME280;39535;52.192;9.886;2023-02-11T07:01:06;101773.66;;;5.51;100.00
13952;BME280;39535;52.192;9.886;2023-02-11T07:03:33;101766.06;;;5.59;100.00
13952;BME280;39535;52.192;9.886;2023-02-11T07:06:00;101774.75;;;5.63;100.00
13952;BME280;39535;52.192;9.886;2023-02-11T07:08:27;101780.69;;;5.57;100.00
13952;BME280;39535;52.192;9.886;2023-02-11T07:10:53;101779.34;;;5.73;100.00
13952;BME280;39535;52.192;9.886;2023-02-11T07:13:20;101793.09;;;5.72;100.00
13952;BME280;39535;52.192;9.886;2023-02-11T07:15:48;101798.28;;;5.72;100.00
13952;BME280;39535;52.192;9.886;2023-02-11T07:18:15;101784.28;;;5.64;100.00
13952;BME280;39535;52.192;9.886;2023-02-11T07:20:41;101786.97;;;5.68;100.00
13952;BME280;39535;52.192;9.886;2023-02-11T07:23:08;101796.56;;;5.72;100.00
13952;BME280;39535;52.192;9.886;2023-02-11T07:25:35;101803.47;;;5.72;100.00
13952;BME280;39535;52.192;9.886;2023-02-11T07:28:02;101803.19;;;5.60;100.00
13952;BME280;39535;52.192;9.886;2023-02-11T07:30:28;101806.94;;;5.72;100.00
13952;BME280;39535;52.192;9.886;2023-02-11T07:32:56;101821.69;;;5.76;100.00
13952;BME280;39535;52.192;9.886;2023-02-11T07:35:22;101817.34;;;5.74;100.00
13952;BME280;39535;52.192;9.886;2023-02-11T07:37:49;101816.34;;;5.69;100.00
13952;BME280;39535;52.192;9.886;2023-02-11T07:40:16;101820.94;;;5.81;100.00
13952;BME280;39535;52.192;9.886;2023-02-11T07:42:42;101826.06;;;5.77;100.00
13952;BME280;39535;52.192;9.886;2023-02-11T07:45:08;101820.00;;;5.77;100.00
13952;BME280;39535;52.192;9.886;2023-02-11T07:47:35;101819.16;;;5.78;100.00
13952;BME280;39535;52.192;9.886;2023-02-11T07:50:04;101818.09;;;5.70;100.00
13952;BME280;39535;52.192;9.886;2023-02-11T07:52:31;101812.25;;;5.77;100.00
13952;BME280;39535;52.192;9.886;2023-02-11T07:54:57;101824.09;;;5.67;100.00
13952;BME280;39535;52.192;9.886;2023-02-11T07:57:24;101827.84;;;5.80;100.00
13952;BME280;39535;52.192;9.886;2023-02-11T07:59:51;101828.75;;;5.82;100.00
13952;BME280;39535;52.192;9.886;2023-02-11T08:02:18;101822.78;;;5.86;100.00
13952;BME280;39535;52.192;9.886;2023-02-11T08:04:44;101831.69;;;5.96;100.00
13952;BME280;39535;52.192;9.886;2023-02-11T08:07:14;101839.19;;;5.85;100.00
13952;BME280;39535;52.192;9.886;2023-02-11T08:09:41;101830.81;;;5.95;100.00
13952;BME280;39535;52.192;9.886;2023-02-11T08:12:07;101828.78;;;5.84;100.00
13952;BME280;39535;52.192;9.886;2023-02-11T08:14:34;101825.78;;;6.02;100.00
13952;BME280;39535;52.192;9.886;2023-02-11T08:17:00;101834.50;;;6.05;100.00
13952;BME280;39535;52.192;9.886;2023-02-11T08:19:27;101831.59;;;5.94;100.00
13952;BME280;39535;52.192;9.886;2023-02-11T08:21:54;101830.75;;;5.94;100.00
13952;BME280;39535;52.192;9.886;2023-02-11T08:24:22;101830.13;;;6.04;100.00
13952;BME280;39535;52.192;9.886;2023-02-11T08:26:48;101844.91;;;6.07;100.00
13952;BME280;39535;52.192;9.886;2023-02-11T08:29:15;101844.13;;;6.11;100.00
13952;BME280;39535;52.192;9.886;2023-02-11T08:31:44;101839.84;;;6.13;100.00
13952;BME280;39535;52.192;9.886;2023-02-11T08:34:12;101858.00;;;6.13;100.00
13952;BME280;39535;52.192;9.886;2023-02-11T08:36:40;101868.16;;;6.04;100.00
13952;BME280;39535;52.192;9.886;2023-02-11T08:39:11;101854.38;;;6.06;100.00
13952;BME280;39535;52.192;9.886;2023-02-11T08:41:39;101858.63;;;6.03;100.00
13952;BME280;39535;52.192;9.886;2023-02-11T08:44:06;101865.72;;;6.11;100.00
13952;BME280;39535;52.192;9.886;2023-02-11T08:46:32;101876.97;;;6.12;100.00
13952;BME280;39535;52.192;9.886;2023-02-11T08:48:59;101889.25;;;6.19;100.00
13952;BME280;39535;52.192;9.886;2023-02-11T08:51:27;101874.56;;;6.20;100.00
13952;BME280;39535;52.192;9.886;2023-02-11T08:53:54;101891.88;;;6.22;100.00
13952;BME280;39535;52.192;9.886;2023-02-11T08:56:21;101892.66;;;6.18;100.00
13952;BME280;39535;52.192;9.886;2023-02-11T08:58:50;101883.25;;;6.22;100.00
13952;BME280;39535;52.192;9.886;2023-02-11T09:01:19;101879.69;;;6.18;100.00
13952;BME280;39535;52.192;9.886;2023-02-11T09:03:46;101885.63;;;6.12;100.00
13952;BME280;39535;52.192;9.886;2023-02-11T09:06:13;101863.31;;;6.19;100.00
13952;BME280;39535;52.192;9.886;2023-02-11T09:08:44;101864.25;;;6.23;100.00
13952;BME280;39535;52.192;9.886;2023-02-11T09:11:13;101874.56;;;6.20;100.00
13952;BME280;39535;52.192;9.886;2023-02-11T09:13:41;101873.00;;;6.28;100.00
13952;BME280;39535;52.192;9.886;2023-02-11T09:16:15;101886.78;;;6.25;100.00
13952;BME280;39535;52.192;9.886;2023-02-11T09:18:42;101878.91;;;6.22;100.00
13952;BME280;39535;52.192;9.886;2023-02-11T09:21:10;101891.94;;;6.24;100.00
13952;BME280;39535;52.192;9.886;2023-02-11T09:23:36;101893.66;;;6.23;100.00
13952;BME280;39535;52.192;9.886;2023-02-11T09:26:06;101898.94;;;6.28;100.00
13952;BME280;39535;52.192;9.886;2023-02-11T09:28:32;101904.88;;;6.24;100.00
13952;BME280;39535;52.192;9.886;2023-02-11T09:31:04;101907.78;;;6.38;100.00
13952;BME280;39535;52.192;9.886;2023-02-11T09:33:31;101923.44;;;6.41;100.00
13952;BME280;39535;52.192;9.886;2023-02-11T09:35:59;101941.63;;;6.42;100.00
13952;BME280;39535;52.192;9.886;2023-02-11T09:38:25;101934.72;;;6.43;100.00
13952;BME280;39535;52.192;9.886;2023-02-11T09:40:52;101928.84;;;6.51;100.00
13952;BME280;39535;52.192;9.886;2023-02-11T09:43:20;101932.31;;;6.50;100.00
13952;BME280;39535;52.192;9.886;2023-02-11T09:45:48;101945.31;;;6.53;100.00
13952;BME280;39535;52.192;9.886;2023-02-11T09:48:17;101946.34;;;6.62;100.00
13952;BME280;39535;52.192;9.886;2023-02-11T09:50:48;101964.50;;;6.60;100.00
13952;BME280;39535;52.192;9.886;2023-02-11T09:53:19;101973.34;;;6.68;100.00
13952;BME280;39535;52.192;9.886;2023-02-11T09:55:51;101993.31;;;6.72;100.00
13952;BME280;39535;52.192;9.886;2023-02-11T09:58:24;101989.59;;;6.61;100.00
13952;BME280;39535;52.192;9.886;2023-02-11T10:00:58;101994.97;;;6.69;100.00
13952;BME280;39535;52.192;9.886;2023-02-11T10:03:45;102007.84;;;6.64;100.00
13952;BME280;39535;52.192;9.886;2023-02-11T10:06:34;101985.28;;;6.62;100.00
13952;BME280;39535;52.192;9.886;2023-02-11T10:09:10;101978.56;;;6.71;100.00
13952;BME280;39535;52.192;9.886;2023-02-11T10:11:49;101970.09;;;6.79;100.00
13952;BME280;39535;52.192;9.886;2023-02-11T10:14:27;101998.41;;;6.69;100.00
13952;BME280;39535;52.192;9.886;2023-02-11T10:17:05;102001.88;;;6.68;100.00
13952;BME280;39535;52.192;9.886;2023-02-11T10:19:48;102006.56;;;6.85;100.00
13952;BME280;39535;52.192;9.886;2023-02-11T10:22:21;102010.31;;;6.99;100.00
13952;BME280;39535;52.192;9.886;2023-02-11T10:24:51;102011.78;;;6.86;100.00
13952;BME280;39535;52.192;9.886;2023-02-11T10:27:20;102011.09;;;6.95;100.00
13952;BME280;39535;52.192;9.886;2023-02-11T10:29:52;102005.56;;;6.80;100.00
13952;BME280;39535;52.192;9.886;2023-02-11T10:32:27;102000.63;;;6.90;100.00
13952;BME280;39535;52.192;9.886;2023-02-11T10:34:58;101992.22;;;7.02;100.00
13952;BME280;39535;52.192;9.886;2023-02-11T10:37:28;102001.50;;;6.91;100.00
13952;BME280;39535;52.192;9.886;2023-02-11T10:39:55;101998.41;;;7.09;100.00
13952;BME280;39535;52.192;9.886;2023-02-11T10:42:21;102009.38;;;6.95;100.00
13952;BME280;39535;52.192;9.886;2023-02-11T10:44:56;101975.31;;;6.80;100.00
13952;BME280;39535;52.192;9.886;2023-02-11T10:47:25;101965.09;;;6.88;100.00
13952;BME280;39535;52.192;9.886;2023-02-11T10:49:52;101952.25;;;6.95;100.00
13952;BME280;39535;52.192;9.886;2023-02-11T10:52:21;101956.81;;;7.07;100.00
13952;BME280;39535;52.192;9.886;2023-02-11T10:55:15;101964.66;;;7.09;100.00
13952;BME280;39535;52.192;9.886;2023-02-11T10:57:42;101978.59;;;7.14;100.00
13952;BME280;39535;52.192;9.886;2023-02-11T11:00:32;101984.91;;;7.27;100.00
13952;BME280;39535;52.192;9.886;2023-02-11T11:03:01;101966.34;;;7.07;100.00
13952;BME280;39535;52.192;9.886;2023-02-11T11:05:31;101958.50;;;7.05;100.00
13952;BME280;39535;52.192;9.886;2023-02-11T11:07:59;101951.69;;;7.10;100.00
13952;BME280;39535;52.192;9.886;2023-02-11T11:10:35;101935.22;;;7.08;100.00
13952;BME280;39535;52.192;9.886;2023-02-11T11:13:23;101931.88;;;7.14;100.00
13952;BME280;39535;52.192;9.886;2023-02-11T11:16:14;101943.66;;;6.98;100.00
13952;BME280;39535;52.192;9.886;2023-02-11T11:18:42;101936.78;;;7.00;100.00
13952;BME280;39535;52.192;9.886;2023-02-11T11:21:13;101943.88;;;7.09;100.00
13952;BME280;39535;52.192;9.886;2023-02-11T11:23:47;101944.63;;;7.03;100.00
13952;BME280;39535;52.192;9.886;2023-02-11T11:26:16;101932.38;;;6.97;100.00
13952;BME280;39535;52.192;9.886;2023-02-11T11:28:51;101941.00;;;6.95;100.00
13952;BME280;39535;52.192;9.886;2023-02-11T11:31:20;101922.75;;;6.90;100.00
13952;BME280;39535;52.192;9.886;2023-02-11T11:33:50;101911.53;;;6.93;100.00
13952;BME280;39535;52.192;9.886;2023-02-11T11:36:20;101931.34;;;6.88;100.00
13952;BME280;39535;52.192;9.886;2023-02-11T11:38:50;101918.31;;;6.85;100.00
13952;BME280;39535;52.192;9.886;2023-02-11T11:41:23;101907.19;;;6.90;100.00
13952;BME280;39535;52.192;9.886;2023-02-11T11:44:02;101923.56;;;6.88;100.00
13952;BME280;39535;52.192;9.886;2023-02-11T11:46:33;101923.66;;;6.92;100.00
13952;BME280;39535;52.192;9.886;2023-02-11T11:49:11;101925.38;;;6.92;100.00
13952;BME280;39535;52.192;9.886;2023-02-11T11:51:41;101909.81;;;6.93;100.00
13952;BME280;39535;52.192;9.886;2023-02-11T11:54:12;101915.75;;;6.86;100.00
13952;BME280;39535;52.192;9.886;2023-02-11T11:56:49;101903.69;;;6.88;100.00
13952;BME280;39535;52.192;9.886;2023-02-11T11:59:16;101889.75;;;6.85;100.00
13952;BME280;39535;52.192;9.886;2023-02-11T12:01:53;101903.50;;;6.81;100.00
13952;BME280;39535;52.192;9.886;2023-02-11T12:04:50;101895.69;;;6.79;100.00
13952;BME280;39535;52.192;9.886;2023-02-11T12:07:30;101903.75;;;6.93;100.00
13952;BME280;39535;52.192;9.886;2023-02-11T12:12:50;101909.81;;;6.93;100.00
13952;BME280;39535;52.192;9.886;2023-02-11T12:15:27;101905.56;;;6.97;100.00
13952;BME280;39535;52.192;9.886;2023-02-11T12:18:08;101905.41;;;6.88;100.00
13952;BME280;39535;52.192;9.886;2023-02-11T12:20:54;101899.28;;;6.84;100.00
13952;BME280;39535;52.192;9.886;2023-02-11T12:23:34;101896.75;;;6.89;100.00
13952;BME280;39535;52.192;9.886;2023-02-11T12:26:12;101904.00;;;7.05;100.00
13952;BME280;39535;52.192;9.886;2023-02-11T12:29:07;101919.56;;;7.05;100.00
13952;BME280;39535;52.192;9.886;2023-02-11T12:31:50;101918.78;;;7.09;100.00
13952;BME280;39535;52.192;9.886;2023-02-11T12:34:36;101916.97;;;7.05;100.00
13952;BME280;39535;52.192;9.886;2023-02-11T12:37:16;101919.53;;;7.02;100.00
13952;BME280;39535;52.192;9.886;2023-02-11T12:39:49;101926.50;;;7.05;100.00
13952;BME280;39535;52.192;9.886;2023-02-11T12:42:30;101931.59;;;7.00;100.00
13952;BME280;39535;52.192;9.886;2023-02-11T12:45:22;101929.91;;;7.02;100.00
13952;BME280;39535;52.192;9.886;2023-02-11T12:48:02;101922.81;;;6.95;100.00
13952;BME280;39535;52.192;9.886;2023-02-11T12:50:40;101914.31;;;7.02;100.00
13952;BME280;39535;52.192;9.886;2023-02-11T12:53:28;101912.47;;;6.96;100.00
13952;BME280;39535;52.192;9.886;2023-02-11T12:56:01;101893.25;;;6.87;100.00
13952;BME280;39535;52.192;9.886;2023-02-11T12:58:33;101881.16;;;6.87;100.00
13952;BME280;39535;52.192;9.886;2023-02-11T13:01:07;101894.31;;;6.96;100.00
13952;BME280;39535;52.192;9.886;2023-02-11T13:03:39;101893.38;;;6.93;100.00
13952;BME280;39535;52.192;9.886;2023-02-11T13:06:10;101889.88;;;6.91;100.00
13952;BME280;39535;52.192;9.886;2023-02-11T13:08:42;101891.53;;;6.86;100.00
13952;BME280;39535;52.192;9.886;2023-02-11T13:11:12;101882.94;;;6.90;100.00
13952;BME280;39535;52.192;9.886;2023-02-11T13:13:46;101888.22;;;6.94;100.00
13952;BME280;39535;52.192;9.886;2023-02-11T13:16:21;101886.44;;;6.92;100.00